Pelican Arrow — 3FNQ4 — position and weather

sailwx.info

Track history (hours):
 
Tides and Currents Weather Stations Pressure Air Temp Water Temp Dewpoint Dewpoint Depression Visibility Wind Speed Wind Dir Waves Ship Positions

Pelican Arrow

Last reported at 2018-Jun-20 21:41 UTC. Time now 2018-Jun-22 01:22 UTC.
Position N 31°20' E 121°42'.

Length 200 m; draft 13.1 m.

Type: Ship. MMSI: 354726000.

Date/timePositionNaut miles runAvg speedWind from/ knotsBaromVisibWave heightAir tempDewpointWater temp
2018-Jun-20 21:41N 31°20' E 121°42'310.1
2018-Jun-20 21:21N 31°18' E 121°45'411.4
2018-Jun-20 21:01N 31°17' E 121°50'711.0
2018-Jun-20 20:22N 31°15' E 121°58'410.4
2018-Jun-20 19:59N 31°14' E 122°02'510.3
2018-Jun-20 19:30N 31°13' E 122°08'6 9.9
2018-Jun-20 18:52N 31°09' E 122°14'410.4
2018-Jun-20 18:30N 31°07' E 122°17'611.7
2018-Jun-20 18:00N 31°07' E 122°24'23 1.3
2018-Jun-20 00:28N 31°07' E 122°51'712.0
2018-Jun-19 23:51N 31°07' E 122°59'  
Track history (hours):
 
Tides and Currents Weather Stations Pressure Air Temp Water Temp Dewpoint Dewpoint Depression Visibility Wind Speed Wind Dir Waves Ship Positions

Pelican Arrow

Last reported at 2018-Jun-20 21:41 UTC. Time now 2018-Jun-22 01:22 UTC.
Position N 31°20' E 121°42'.

Length 200 m; draft 13.1 m.

Type: Ship. MMSI: 354726000.

Date/timePositionNaut miles runAvg speedWind from/ knotsBaromVisibWave heightAir tempDewpointWater temp
2018-Jun-20 21:41N 31°20' E 121°42'310.1
2018-Jun-20 21:21N 31°18' E 121°45'411.4
2018-Jun-20 21:01N 31°17' E 121°50'711.0
2018-Jun-20 20:22N 31°15' E 121°58'410.4
2018-Jun-20 19:59N 31°14' E 122°02'510.3
2018-Jun-20 19:30N 31°13' E 122°08'6 9.9
2018-Jun-20 18:52N 31°09' E 122°14'410.4
2018-Jun-20 18:30N 31°07' E 122°17'611.7
2018-Jun-20 18:00N 31°07' E 122°24'23 1.3
2018-Jun-20 00:28N 31°07' E 122°51'712.0
2018-Jun-19 23:51N 31°07' E 122°59'  

Dump ship's entire track history